Forside
METAR-TAF:

METAR-TAF

Lufthavne :

Porter County Municipal Airport

Valparaiso, Indiana, USA

Breddekreds: 41-27-11N, længdekreds: 086-59-53W, højde: 234 m

Aktuelle vejr

Denne rapport blev lavet for 32 minutter siden, kl. 18:56 UTC
Vind 15 kt fra sydsydvest
Temperatur 8°C
Fugtighed 42%
Tryk 1023 hPa
Sigt: 16.1 km
skyfri

METAR: KVPZ 221856Z AUTO 21015KT 10SM CLR 08/M04 A3021 RMK AO2 SLP236 T00781044

Tid: 13:28 (19:28 UTC)


TAF: fraværende

Vejrobservationer og prognoser fra mere end 4000 lufthavne (METAR og TAF).

De gule og røde prikker repræsenterer de meteorologiske stationer.

Flyt musen over at se navnet på stationen.

Så klik over at se vejr observationer og prognoser.

At skifte det kort: Klik på de grønne knapper med et sort kors for at zoome ind; på den grønne knap med en bindestreg for at zoome ud; eller på de grønne pile for tilstødende kort.


METAR-TAF: